sensor_id;sensor_type;location;lat;lon;timestamp;pressure;altitude;pressure_sealevel;temperature;humidity
37066;BME280;22981;43.080;25.550;2022-07-29T07:43:02;99614.53;;;25.92;51.67
37066;BME280;22981;43.080;25.550;2022-07-29T07:45:30;99611.66;;;26.06;51.08
37066;BME280;22981;43.080;25.550;2022-07-29T07:47:59;99615.39;;;26.19;50.68
37066;BME280;22981;43.080;25.550;2022-07-29T07:50:26;99610.83;;;26.34;50.69
37066;BME280;22981;43.080;25.550;2022-07-29T07:52:55;99607.88;;;26.51;50.77
37066;BME280;22981;43.080;25.550;2022-07-29T07:55:26;99600.38;;;26.62;50.00
37066;BME280;22981;43.080;25.550;2022-07-29T07:57:54;99601.67;;;26.74;49.67
37066;BME280;22981;43.080;25.550;2022-07-29T08:00:22;99599.48;;;26.90;48.12
37066;BME280;22981;43.080;25.550;2022-07-29T08:02:50;99595.41;;;27.05;47.55
37066;BME280;22981;43.080;25.550;2022-07-29T08:05:18;99590.23;;;27.21;46.70
37066;BME280;22981;43.080;25.550;2022-07-29T08:07:46;99589.23;;;27.34;45.57
37066;BME280;22981;43.080;25.550;2022-07-29T08:10:18;99589.16;;;27.52;44.22
37066;BME280;22981;43.080;25.550;2022-07-29T08:13:05;99588.13;;;27.74;43.40
37066;BME280;22981;43.080;25.550;2022-07-29T08:15:33;99581.65;;;27.93;42.47
37066;BME280;22981;43.080;25.550;2022-07-29T08:18:01;99576.50;;;28.12;42.21
37066;BME280;22981;43.080;25.550;2022-07-29T08:20:29;99577.88;;;28.27;41.31
37066;BME280;22981;43.080;25.550;2022-07-29T08:22:58;99578.34;;;28.44;40.39
37066;BME280;22981;43.080;25.550;2022-07-29T08:25:26;99570.38;;;28.57;40.05
37066;BME280;22981;43.080;25.550;2022-07-29T08:27:53;99577.77;;;28.72;39.76
37066;BME280;22981;43.080;25.550;2022-07-29T08:30:21;99569.08;;;28.82;39.24
37066;BME280;22981;43.080;25.550;2022-07-29T08:32:49;99570.62;;;28.91;38.57
37066;BME280;22981;43.080;25.550;2022-07-29T08:35:18;99568.04;;;29.01;38.81
37066;BME280;22981;43.080;25.550;2022-07-29T08:37:47;99574.84;;;29.16;39.08
37066;BME280;22981;43.080;25.550;2022-07-29T08:40:14;99562.36;;;29.31;38.84
37066;BME280;22981;43.080;25.550;2022-07-29T08:42:42;99563.41;;;29.44;38.32
37066;BME280;22981;43.080;25.550;2022-07-29T08:45:10;99558.01;;;29.54;37.99
37066;BME280;22981;43.080;25.550;2022-07-29T08:47:39;99564.94;;;29.66;37.92
37066;BME280;22981;43.080;25.550;2022-07-29T08:50:08;99558.84;;;29.79;37.93
37066;BME280;22981;43.080;25.550;2022-07-29T08:52:38;99558.48;;;29.93;37.47
37066;BME280;22981;43.080;25.550;2022-07-29T08:55:08;99555.94;;;30.06;37.29
37066;BME280;22981;43.080;25.550;2022-07-29T08:57:36;99557.69;;;30.17;37.04
37066;BME280;22981;43.080;25.550;2022-07-29T09:00:06;99557.19;;;30.27;36.37
37066;BME280;22981;43.080;25.550;2022-07-29T09:02:41;99553.05;;;30.33;36.54
37066;BME280;22981;43.080;25.550;2022-07-29T09:05:09;99547.71;;;30.40;36.48
37066;BME280;22981;43.080;25.550;2022-07-29T09:07:38;99548.47;;;30.53;36.33
37066;BME280;22981;43.080;25.550;2022-07-29T09:10:08;99545.38;;;30.55;35.50
37066;BME280;22981;43.080;25.550;2022-07-29T09:12:36;99539.96;;;30.58;34.94
37066;BME280;22981;43.080;25.550;2022-07-29T09:15:04;99542.47;;;30.57;35.13
37066;BME280;22981;43.080;25.550;2022-07-29T09:17:46;99540.94;;;30.66;35.24
37066;BME280;22981;43.080;25.550;2022-07-29T09:20:19;99545.86;;;30.79;35.05
37066;BME280;22981;43.080;25.550;2022-07-29T09:22:49;99545.38;;;30.89;35.30
37066;BME280;22981;43.080;25.550;2022-07-29T09:28:07;99540.41;;;31.10;34.13
37066;BME280;22981;43.080;25.550;2022-07-29T09:30:43;99543.59;;;31.18;33.76
37066;BME280;22981;43.080;25.550;2022-07-29T09:33:05;99538.13;;;31.28;33.38
37066;BME280;22981;43.080;25.550;2022-07-29T09:35:32;99540.81;;;31.40;33.06
37066;BME280;22981;43.080;25.550;2022-07-29T09:38:16;99535.22;;;31.47;32.88
37066;BME280;22981;43.080;25.550;2022-07-29T09:40:40;99534.14;;;31.51;32.61
37066;BME280;22981;43.080;25.550;2022-07-29T09:43:12;99526.82;;;31.59;32.49
37066;BME280;22981;43.080;25.550;2022-07-29T09:45:41;99524.75;;;31.72;32.23
37066;BME280;22981;43.080;25.550;2022-07-29T09:48:24;99522.16;;;31.79;32.10
37066;BME280;22981;43.080;25.550;2022-07-29T09:50:52;99517.46;;;31.89;31.90
37066;BME280;22981;43.080;25.550;2022-07-29T09:53:35;99519.31;;;32.01;31.86
37066;BME280;22981;43.080;25.550;2022-07-29T09:56:03;99517.05;;;32.06;31.72
37066;BME280;22981;43.080;25.550;2022-07-29T09:58:32;99521.45;;;32.17;31.94
37066;BME280;22981;43.080;25.550;2022-07-29T10:01:01;99516.33;;;32.29;31.75
37066;BME280;22981;43.080;25.550;2022-07-29T10:03:29;99507.70;;;32.40;31.43
37066;BME280;22981;43.080;25.550;2022-07-29T10:06:10;99517.47;;;32.53;31.04
37066;BME280;22981;43.080;25.550;2022-07-29T10:08:39;99515.78;;;32.58;30.05
37066;BME280;22981;43.080;25.550;2022-07-29T10:11:13;99517.75;;;32.58;30.63
37066;BME280;22981;43.080;25.550;2022-07-29T10:13:40;99517.09;;;32.55;29.62
37066;BME280;22981;43.080;25.550;2022-07-29T10:16:09;99518.78;;;32.40;30.53
37066;BME280;22981;43.080;25.550;2022-07-29T10:18:39;99510.77;;;32.45;30.11
37066;BME280;22981;43.080;25.550;2022-07-29T10:21:07;99500.25;;;32.54;29.63
37066;BME280;22981;43.080;25.550;2022-07-29T10:23:36;99503.47;;;32.56;29.61
37066;BME280;22981;43.080;25.550;2022-07-29T10:26:04;99496.15;;;32.67;29.97
37066;BME280;22981;43.080;25.550;2022-07-29T10:28:32;99497.23;;;32.82;29.33
37066;BME280;22981;43.080;25.550;2022-07-29T10:31:02;99492.17;;;32.87;29.20
37066;BME280;22981;43.080;25.550;2022-07-29T10:33:48;99491.55;;;32.94;29.48
37066;BME280;22981;43.080;25.550;2022-07-29T10:44:30;99475.77;;;32.98;29.51
37066;BME280;22981;43.080;25.550;2022-07-29T10:46:59;99472.09;;;33.04;29.57
37066;BME280;22981;43.080;25.550;2022-07-29T10:49:27;99471.09;;;33.02;29.75
37066;BME280;22981;43.080;25.550;2022-07-29T10:52:09;99468.66;;;33.01;29.46
37066;BME280;22981;43.080;25.550;2022-07-29T10:54:44;99462.98;;;33.03;30.16
37066;BME280;22981;43.080;25.550;2022-07-29T11:02:43;99454.95;;;33.34;29.60
37066;BME280;22981;43.080;25.550;2022-07-29T11:05:12;99458.84;;;33.43;29.15
37066;BME280;22981;43.080;25.550;2022-07-29T11:10:27;99455.84;;;33.52;28.88
37066;BME280;22981;43.080;25.550;2022-07-29T11:12:55;99449.95;;;33.57;28.38
37066;BME280;22981;43.080;25.550;2022-07-29T11:15:22;99445.49;;;33.62;28.65
37066;BME280;22981;43.080;25.550;2022-07-29T11:20:44;99448.20;;;33.72;28.53
37066;BME280;22981;43.080;25.550;2022-07-29T11:26:17;99443.70;;;33.77;27.76
37066;BME280;22981;43.080;25.550;2022-07-29T11:31:43;99434.73;;;33.74;28.11
37066;BME280;22981;43.080;25.550;2022-07-29T11:34:23;99433.39;;;33.77;27.91
37066;BME280;22981;43.080;25.550;2022-07-29T11:39:39;99435.97;;;33.76;28.49
37066;BME280;22981;43.080;25.550;2022-07-29T11:45:06;99423.39;;;33.86;28.49
37066;BME280;22981;43.080;25.550;2022-07-29T11:47:37;99421.36;;;33.83;28.70
37066;BME280;22981;43.080;25.550;2022-07-29T11:50:12;99422.84;;;33.90;28.81
37066;BME280;22981;43.080;25.550;2022-07-29T11:52:41;99419.22;;;33.99;28.54
37066;BME280;22981;43.080;25.550;2022-07-29T11:55:18;99409.55;;;34.03;28.56
37066;BME280;22981;43.080;25.550;2022-07-29T11:57:53;99407.81;;;34.08;28.51
37066;BME280;22981;43.080;25.550;2022-07-29T12:00:28;99409.70;;;34.17;28.42
37066;BME280;22981;43.080;25.550;2022-07-29T12:02:56;99402.09;;;34.27;27.82
37066;BME280;22981;43.080;25.550;2022-07-29T12:05:41;99407.06;;;34.28;27.74
37066;BME280;22981;43.080;25.550;2022-07-29T12:08:16;99402.50;;;34.29;27.99
37066;BME280;22981;43.080;25.550;2022-07-29T12:10:47;99399.92;;;34.30;27.78
37066;BME280;22981;43.080;25.550;2022-07-29T12:13:17;99402.70;;;34.30;27.97
37066;BME280;22981;43.080;25.550;2022-07-29T12:15:56;99396.58;;;34.31;28.11
37066;BME280;22981;43.080;25.550;2022-07-29T12:18:24;99396.78;;;34.32;28.16
37066;BME280;22981;43.080;25.550;2022-07-29T12:21:01;99390.94;;;34.24;28.07
37066;BME280;22981;43.080;25.550;2022-07-29T12:23:33;99383.70;;;34.16;28.54
37066;BME280;22981;43.080;25.550;2022-07-29T12:26:05;99384.89;;;34.14;28.91
37066;BME280;22981;43.080;25.550;2022-07-29T12:28:38;99377.90;;;34.11;28.33
37066;BME280;22981;43.080;25.550;2022-07-29T12:31:05;99375.83;;;34.04;28.52
37066;BME280;22981;43.080;25.550;2022-07-29T12:33:33;99376.42;;;34.04;28.18
37066;BME280;22981;43.080;25.550;2022-07-29T12:36:02;99374.63;;;34.02;28.10
37066;BME280;22981;43.080;25.550;2022-07-29T12:38:30;99364.78;;;33.95;28.29
37066;BME280;22981;43.080;25.550;2022-07-29T12:40:58;99367.63;;;33.98;28.08
37066;BME280;22981;43.080;25.550;2022-07-29T12:43:25;99363.39;;;33.95;28.57
37066;BME280;22981;43.080;25.550;2022-07-29T12:45:56;99360.30;;;34.00;28.77
37066;BME280;22981;43.080;25.550;2022-07-29T12:51:05;99352.36;;;33.98;29.04
37066;BME280;22981;43.080;25.550;2022-07-29T12:53:34;99354.63;;;34.06;29.15
37066;BME280;22981;43.080;25.550;2022-07-29T12:56:02;99352.73;;;34.13;29.00
37066;BME280;22981;43.080;25.550;2022-07-29T12:58:39;99348.81;;;34.18;28.85
37066;BME280;22981;43.080;25.550;2022-07-29T13:01:14;99348.83;;;34.22;28.83
37066;BME280;22981;43.080;25.550;2022-07-29T13:03:52;99351.64;;;34.25;28.78
37066;BME280;22981;43.080;25.550;2022-07-29T13:06:40;99351.16;;;34.16;28.77
37066;BME280;22981;43.080;25.550;2022-07-29T13:09:19;99350.95;;;34.15;28.84
37066;BME280;22981;43.080;25.550;2022-07-29T13:11:51;99340.64;;;34.16;28.67
37066;BME280;22981;43.080;25.550;2022-07-29T13:14:39;99337.37;;;34.06;28.63
37066;BME280;22981;43.080;25.550;2022-07-29T13:17:09;99339.98;;;33.96;28.75
37066;BME280;22981;43.080;25.550;2022-07-29T13:19:41;99335.38;;;33.90;29.21
37066;BME280;22981;43.080;25.550;2022-07-29T13:22:14;99325.70;;;33.94;29.29
37066;BME280;22981;43.080;25.550;2022-07-29T13:24:50;99326.10;;;33.96;29.03
37066;BME280;22981;43.080;25.550;2022-07-29T13:27:22;99320.94;;;33.94;29.32
37066;BME280;22981;43.080;25.550;2022-07-29T13:29:50;99326.38;;;34.00;29.19
37066;BME280;22981;43.080;25.550;2022-07-29T13:32:22;99319.16;;;33.96;28.88
37066;BME280;22981;43.080;25.550;2022-07-29T13:34:49;99312.16;;;33.88;28.85
37066;BME280;22981;43.080;25.550;2022-07-29T13:37:17;99315.53;;;33.88;28.92
37066;BME280;22981;43.080;25.550;2022-07-29T13:39:45;99321.40;;;33.83;28.94
37066;BME280;22981;43.080;25.550;2022-07-29T13:42:14;99316.03;;;33.80;28.92
37066;BME280;22981;43.080;25.550;2022-07-29T13:44:41;99312.23;;;33.79;29.12
37066;BME280;22981;43.080;25.550;2022-07-29T13:47:09;99309.45;;;33.79;29.22
37066;BME280;22981;43.080;25.550;2022-07-29T13:49:36;99309.09;;;33.80;29.08
37066;BME280;22981;43.080;25.550;2022-07-29T13:52:04;99299.97;;;33.80;28.93
37066;BME280;22981;43.080;25.550;2022-07-29T13:54:33;99307.70;;;33.80;28.93
37066;BME280;22981;43.080;25.550;2022-07-29T13:57:03;99301.76;;;33.82;28.88
37066;BME280;22981;43.080;25.550;2022-07-29T13:59:31;99297.78;;;33.79;28.63
37066;BME280;22981;43.080;25.550;2022-07-29T14:01:58;99291.84;;;33.64;28.60
37066;BME280;22981;43.080;25.550;2022-07-29T14:04:26;99295.76;;;33.59;28.90
37066;BME280;22981;43.080;25.550;2022-07-29T14:06:53;99298.14;;;33.61;28.90
37066;BME280;22981;43.080;25.550;2022-07-29T14:09:21;99293.38;;;33.58;28.88
37066;BME280;22981;43.080;25.550;2022-07-29T14:11:48;99294.76;;;33.58;28.74
37066;BME280;22981;43.080;25.550;2022-07-29T14:14:19;99290.59;;;33.58;28.78
37066;BME280;22981;43.080;25.550;2022-07-29T14:16:47;99292.19;;;33.59;28.77
37066;BME280;22981;43.080;25.550;2022-07-29T14:19:15;99290.20;;;33.59;29.01
37066;BME280;22981;43.080;25.550;2022-07-29T14:21:42;99289.22;;;33.61;29.22
37066;BME280;22981;43.080;25.550;2022-07-29T14:24:10;99283.56;;;33.68;29.15
37066;BME280;22981;43.080;25.550;2022-07-29T14:26:37;99285.95;;;33.69;29.35
37066;BME280;22981;43.080;25.550;2022-07-29T14:29:05;99277.46;;;33.72;28.91
37066;BME280;22981;43.080;25.550;2022-07-29T14:31:33;99278.41;;;33.70;28.87
37066;BME280;22981;43.080;25.550;2022-07-29T14:34:01;99281.73;;;33.65;28.80
37066;BME280;22981;43.080;25.550;2022-07-29T14:36:28;99289.06;;;33.64;29.00
37066;BME280;22981;43.080;25.550;2022-07-29T14:38:56;99274.73;;;33.58;29.16
37066;BME280;22981;43.080;25.550;2022-07-29T14:41:23;99287.08;;;33.48;29.40
37066;BME280;22981;43.080;25.550;2022-07-29T14:43:53;99286.49;;;33.35;29.44
37066;BME280;22981;43.080;25.550;2022-07-29T14:46:21;99282.36;;;33.22;29.53
37066;BME280;22981;43.080;25.550;2022-07-29T14:48:48;99277.69;;;33.12;29.63
37066;BME280;22981;43.080;25.550;2022-07-29T14:51:16;99279.02;;;33.09;29.75
37066;BME280;22981;43.080;25.550;2022-07-29T14:53:43;99271.67;;;33.07;29.83
37066;BME280;22981;43.080;25.550;2022-07-29T14:56:11;99275.78;;;33.03;29.83
37066;BME280;22981;43.080;25.550;2022-07-29T14:58:39;99269.80;;;33.01;29.67
37066;BME280;22981;43.080;25.550;2022-07-29T15:01:07;99268.84;;;33.03;29.56
37066;BME280;22981;43.080;25.550;2022-07-29T15:03:34;99274.66;;;33.08;29.76
37066;BME280;22981;43.080;25.550;2022-07-29T15:06:02;99275.70;;;33.13;29.69
37066;BME280;22981;43.080;25.550;2022-07-29T15:08:29;99280.72;;;33.17;29.74
37066;BME280;22981;43.080;25.550;2022-07-29T15:10:57;99284.29;;;33.18;29.66
37066;BME280;22981;43.080;25.550;2022-07-29T15:13:26;99282.75;;;33.20;29.70
37066;BME280;22981;43.080;25.550;2022-07-29T15:15:53;99280.18;;;33.21;29.58
37066;BME280;22981;43.080;25.550;2022-07-29T15:18:21;99278.20;;;33.22;29.59
37066;BME280;22981;43.080;25.550;2022-07-29T15:20:49;99276.22;;;33.22;29.80
37066;BME280;22981;43.080;25.550;2022-07-29T15:23:16;99264.53;;;33.23;29.89
37066;BME280;22981;43.080;25.550;2022-07-29T15:25:44;99262.95;;;33.22;29.89
37066;BME280;22981;43.080;25.550;2022-07-29T15:28:11;99272.45;;;33.21;29.80
37066;BME280;22981;43.080;25.550;2022-07-29T15:30:39;99275.77;;;33.17;29.67
37066;BME280;22981;43.080;25.550;2022-07-29T15:33:09;99281.38;;;33.07;29.66
37066;BME280;22981;43.080;25.550;2022-07-29T15:35:37;99276.70;;;32.98;29.95
37066;BME280;22981;43.080;25.550;2022-07-29T15:38:05;99280.86;;;32.88;30.24
37066;BME280;22981;43.080;25.550;2022-07-29T15:40:32;99279.95;;;32.80;30.62
37066;BME280;22981;43.080;25.550;2022-07-29T15:43:03;99272.76;;;32.76;30.87
37066;BME280;22981;43.080;25.550;2022-07-29T15:45:42;99267.39;;;32.73;30.99
37066;BME280;22981;43.080;25.550;2022-07-29T15:48:14;99271.49;;;32.70;31.11
37066;BME280;22981;43.080;25.550;2022-07-29T15:50:41;99265.89;;;32.66;31.14
37066;BME280;22981;43.080;25.550;2022-07-29T15:53:09;99270.37;;;32.61;31.17
37066;BME280;22981;43.080;25.550;2022-07-29T15:55:36;99274.05;;;32.55;31.31
37066;BME280;22981;43.080;25.550;2022-07-29T15:58:04;99277.49;;;32.49;31.44
37066;BME280;22981;43.080;25.550;2022-07-29T16:00:31;99284.15;;;32.44;31.54
37066;BME280;22981;43.080;25.550;2022-07-29T16:02:59;99282.48;;;32.39;31.56
37066;BME280;22981;43.080;25.550;2022-07-29T16:05:27;99283.41;;;32.37;31.59
37066;BME280;22981;43.080;25.550;2022-07-29T16:07:55;99276.85;;;32.36;31.64
37066;BME280;22981;43.080;25.550;2022-07-29T16:10:22;99282.50;;;32.30;31.73
37066;BME280;22981;43.080;25.550;2022-07-29T16:12:50;99279.45;;;32.25;31.85
37066;BME280;22981;43.080;25.550;2022-07-29T16:15:17;99275.59;;;32.20;31.90
37066;BME280;22981;43.080;25.550;2022-07-29T16:17:45;99273.72;;;32.14;32.15
37066;BME280;22981;43.080;25.550;2022-07-29T16:20:13;99278.98;;;32.10;32.22
37066;BME280;22981;43.080;25.550;2022-07-29T16:22:41;99273.75;;;32.05;32.38
37066;BME280;22981;43.080;25.550;2022-07-29T16:25:09;99278.63;;;32.02;32.40
37066;BME280;22981;43.080;25.550;2022-07-29T16:27:36;99274.41;;;31.98;32.47
37066;BME280;22981;43.080;25.550;2022-07-29T16:30:05;99272.16;;;31.94;32.35
37066;BME280;22981;43.080;25.550;2022-07-29T16:32:36;99275.09;;;31.91;32.45
37066;BME280;22981;43.080;25.550;2022-07-29T16:35:03;99278.20;;;31.90;32.42
37066;BME280;22981;43.080;25.550;2022-07-29T16:37:31;99279.17;;;31.88;32.60
37066;BME280;22981;43.080;25.550;2022-07-29T16:40:04;99272.39;;;31.85;32.69
37066;BME280;22981;43.080;25.550;2022-07-29T16:42:32;99276.68;;;31.83;32.82
37066;BME280;22981;43.080;25.550;2022-07-29T16:45:00;99278.79;;;31.80;32.91
37066;BME280;22981;43.080;25.550;2022-07-29T16:47:28;99282.66;;;31.75;32.90
37066;BME280;22981;43.080;25.550;2022-07-29T16:49:56;99285.14;;;31.71;33.05
37066;BME280;22981;43.080;25.550;2022-07-29T16:52:23;99282.09;;;31.66;32.98
37066;BME280;22981;43.080;25.550;2022-07-29T16:54:51;99281.22;;;31.62;32.98
37066;BME280;22981;43.080;25.550;2022-07-29T16:57:18;99286.30;;;31.60;33.05
37066;BME280;22981;43.080;25.550;2022-07-29T16:59:47;99281.44;;;31.53;33.24
37066;BME280;22981;43.080;25.550;2022-07-29T17:02:16;99286.44;;;31.48;33.32
37066;BME280;22981;43.080;25.550;2022-07-29T17:04:44;99288.70;;;31.42;33.47
37066;BME280;22981;43.080;25.550;2022-07-29T17:07:11;99293.52;;;31.35;33.61
37066;BME280;22981;43.080;25.550;2022-07-29T17:09:39;99291.60;;;31.30;33.74
37066;BME280;22981;43.080;25.550;2022-07-29T17:12:07;99291.28;;;31.25;33.90
37066;BME280;22981;43.080;25.550;2022-07-29T17:14:34;99299.66;;;31.19;33.93
37066;BME280;22981;43.080;25.550;2022-07-29T17:17:02;99298.69;;;31.11;34.03
37066;BME280;22981;43.080;25.550;2022-07-29T17:19:32;99303.70;;;31.06;34.16
37066;BME280;22981;43.080;25.550;2022-07-29T17:22:02;99304.33;;;30.99;34.23
37066;BME280;22981;43.080;25.550;2022-07-29T17:24:30;99304.83;;;30.95;34.30
37066;BME280;22981;43.080;25.550;2022-07-29T17:26:57;99308.09;;;30.91;34.36
37066;BME280;22981;43.080;25.550;2022-07-29T17:29:25;99306.56;;;30.84;34.45
37066;BME280;22981;43.080;25.550;2022-07-29T17:31:53;99309.58;;;30.79;34.44
37066;BME280;22981;43.080;25.550;2022-07-29T17:34:20;99313.66;;;30.75;34.53
37066;BME280;22981;43.080;25.550;2022-07-29T17:36:48;99315.05;;;30.69;34.63
37066;BME280;22981;43.080;25.550;2022-07-29T17:39:15;99314.16;;;30.65;34.65
37066;BME280;22981;43.080;25.550;2022-07-29T17:41:43;99318.36;;;30.59;34.73
37066;BME280;22981;43.080;25.550;2022-07-29T17:44:12;99320.35;;;30.52;34.82
37066;BME280;22981;43.080;25.550;2022-07-29T17:46:40;99319.02;;;30.46;34.94
37066;BME280;22981;43.080;25.550;2022-07-29T17:49:08;99324.23;;;30.41;34.82
37066;BME280;22981;43.080;25.550;2022-07-29T17:51:35;99322.98;;;30.39;34.87
37066;BME280;22981;43.080;25.550;2022-07-29T17:54:03;99325.42;;;30.34;34.97
37066;BME280;22981;43.080;25.550;2022-07-29T17:56:31;99325.11;;;30.30;34.90
37066;BME280;22981;43.080;25.550;2022-07-29T17:58:58;99331.48;;;30.24;34.93
37066;BME280;22981;43.080;25.550;2022-07-29T18:01:27;99320.36;;;30.14;35.06
37066;BME280;22981;43.080;25.550;2022-07-29T18:03:55;99338.36;;;30.02;35.40
37066;BME280;22981;43.080;25.550;2022-07-29T18:06:23;99339.43;;;29.91;35.86
37066;BME280;22981;43.080;25.550;2022-07-29T18:08:51;99339.22;;;29.84;36.28
37066;BME280;22981;43.080;25.550;2022-07-29T18:11:18;99337.66;;;29.77;36.56
37066;BME280;22981;43.080;25.550;2022-07-29T18:13:46;99339.41;;;29.69;36.76
37066;BME280;22981;43.080;25.550;2022-07-29T18:16:13;99348.27;;;29.63;37.01
37066;BME280;22981;43.080;25.550;2022-07-29T18:18:43;99352.66;;;29.58;37.19
37066;BME280;22981;43.080;25.550;2022-07-29T18:21:11;99357.38;;;29.51;37.46
37066;BME280;22981;43.080;25.550;2022-07-29T18:23:39;99362.30;;;29.45;37.59
37066;BME280;22981;43.080;25.550;2022-07-29T18:26:08;99366.25;;;29.38;37.81
37066;BME280;22981;43.080;25.550;2022-07-29T18:28:35;99364.28;;;29.33;38.03
37066;BME280;22981;43.080;25.550;2022-07-29T18:31:03;99373.38;;;29.27;38.22
37066;BME280;22981;43.080;25.550;2022-07-29T18:33:31;99375.22;;;29.23;38.45
37066;BME280;22981;43.080;25.550;2022-07-29T18:35:58;99380.29;;;29.21;38.51
37066;BME280;22981;43.080;25.550;2022-07-29T18:38:26;99385.11;;;29.18;38.63
37066;BME280;22981;43.080;25.550;2022-07-29T18:40:53;99384.77;;;29.13;38.78
37066;BME280;22981;43.080;25.550;2022-07-29T18:43:21;99391.53;;;29.10;38.87
37066;BME280;22981;43.080;25.550;2022-07-29T18:45:49;99387.18;;;29.09;38.95
37066;BME280;22981;43.080;25.550;2022-07-29T18:48:17;99385.69;;;29.05;39.07
37066;BME280;22981;43.080;25.550;2022-07-29T18:50:44;99395.44;;;29.03;39.13
37066;BME280;22981;43.080;25.550;2022-07-29T18:53:12;99395.09;;;28.98;39.33
37066;BME280;22981;43.080;25.550;2022-07-29T18:55:39;99396.45;;;28.92;39.46
37066;BME280;22981;43.080;25.550;2022-07-29T18:58:07;99406.19;;;28.89;39.53
37066;BME280;22981;43.080;25.550;2022-07-29T19:00:34;99407.70;;;28.87;39.60
37066;BME280;22981;43.080;25.550;2022-07-29T19:03:02;99408.95;;;28.83;39.65
37066;BME280;22981;43.080;25.550;2022-07-29T19:05:30;99403.55;;;28.81;39.66
37066;BME280;22981;43.080;25.550;2022-07-29T19:07:58;99408.83;;;28.80;39.79
37066;BME280;22981;43.080;25.550;2022-07-29T19:10:25;99412.03;;;28.76;39.92
37066;BME280;22981;43.080;25.550;2022-07-29T19:12:53;99409.73;;;28.72;39.97
37066;BME280;22981;43.080;25.550;2022-07-29T19:15:22;99409.03;;;28.68;39.98
37066;BME280;22981;43.080;25.550;2022-07-29T19:17:49;99410.86;;;28.64;39.95
37066;BME280;22981;43.080;25.550;2022-07-29T19:20:17;99409.38;;;28.61;40.02
37066;BME280;22981;43.080;25.550;2022-07-29T19:22:44;99415.79;;;28.59;40.02
37066;BME280;22981;43.080;25.550;2022-07-29T19:25:12;99415.34;;;28.57;39.98
37066;BME280;22981;43.080;25.550;2022-07-29T19:27:40;99420.47;;;28.52;39.88
37066;BME280;22981;43.080;25.550;2022-07-29T19:30:08;99422.55;;;28.49;39.90
37066;BME280;22981;43.080;25.550;2022-07-29T19:32:36;99424.37;;;28.45;39.92
37066;BME280;22981;43.080;25.550;2022-07-29T19:35:04;99426.19;;;28.41;39.88
37066;BME280;22981;43.080;25.550;2022-07-29T19:37:53;99424.45;;;28.36;39.83
37066;BME280;22981;43.080;25.550;2022-07-29T19:40:21;99419.36;;;28.32;39.92
37066;BME280;22981;43.080;25.550;2022-07-29T19:42:49;99424.39;;;28.30;39.98
37066;BME280;22981;43.080;25.550;2022-07-29T19:45:19;99421.98;;;28.29;39.93
37066;BME280;22981;43.080;25.550;2022-07-29T19:47:47;99430.02;;;28.28;39.97
37066;BME280;22981;43.080;25.550;2022-07-29T19:50:15;99428.95;;;28.26;39.98
37066;BME280;22981;43.080;25.550;2022-07-29T19:52:43;99428.28;;;28.23;40.11
37066;BME280;22981;43.080;25.550;2022-07-29T19:55:13;99432.85;;;28.19;40.17
37066;BME280;22981;43.080;25.550;2022-07-29T19:57:41;99431.11;;;28.14;40.35
37066;BME280;22981;43.080;25.550;2022-07-29T20:00:09;99426.62;;;28.10;40.45
37066;BME280;22981;43.080;25.550;2022-07-29T20:02:38;99435.20;;;28.08;40.20
37066;BME280;22981;43.080;25.550;2022-07-29T20:05:07;99435.06;;;28.05;40.15
37066;BME280;22981;43.080;25.550;2022-07-29T20:07:37;99432.75;;;28.01;40.28
37066;BME280;22981;43.080;25.550;2022-07-29T20:10:06;99433.75;;;27.96;40.18
37066;BME280;22981;43.080;25.550;2022-07-29T20:12:34;99443.28;;;27.92;40.29
37066;BME280;22981;43.080;25.550;2022-07-29T20:15:04;99439.47;;;27.91;40.34
37066;BME280;22981;43.080;25.550;2022-07-29T20:17:32;99439.59;;;27.88;40.31
37066;BME280;22981;43.080;25.550;2022-07-29T20:20:00;99440.59;;;27.84;40.13
37066;BME280;22981;43.080;25.550;2022-07-29T20:22:29;99433.32;;;27.79;40.10
37066;BME280;22981;43.080;25.550;2022-07-29T20:24:57;99443.30;;;27.78;40.06
37066;BME280;22981;43.080;25.550;2022-07-29T20:27:24;99448.08;;;27.75;40.00
37066;BME280;22981;43.080;25.550;2022-07-29T20:29:52;99442.13;;;27.73;39.86
37066;BME280;22981;43.080;25.550;2022-07-29T20:32:19;99449.05;;;27.70;39.93
37066;BME280;22981;43.080;25.550;2022-07-29T20:34:47;99454.89;;;27.68;39.89
37066;BME280;22981;43.080;25.550;2022-07-29T20:37:14;99450.97;;;27.63;39.95
37066;BME280;22981;43.080;25.550;2022-07-29T20:39:43;99452.44;;;27.61;39.97
37066;BME280;22981;43.080;25.550;2022-07-29T20:42:14;99455.30;;;27.58;39.94
37066;BME280;22981;43.080;25.550;2022-07-29T20:44:42;99451.17;;;27.58;39.93
37066;BME280;22981;43.080;25.550;2022-07-29T20:47:11;99443.23;;;27.57;39.98
37066;BME280;22981;43.080;25.550;2022-07-29T20:49:38;99451.60;;;27.54;40.08
37066;BME280;22981;43.080;25.550;2022-07-29T20:52:06;99445.95;;;27.51;40.17
37066;BME280;22981;43.080;25.550;2022-07-29T20:54:34;99442.27;;;27.46;40.28
37066;BME280;22981;43.080;25.550;2022-07-29T20:57:01;99449.56;;;27.42;40.40
37066;BME280;22981;43.080;25.550;2022-07-29T20:59:29;99449.19;;;27.38;40.46
37066;BME280;22981;43.080;25.550;2022-07-29T21:01:57;99447.66;;;27.34;40.58
37066;BME280;22981;43.080;25.550;2022-07-29T21:04:25;99452.44;;;27.31;40.68
37066;BME280;22981;43.080;25.550;2022-07-29T21:06:53;99456.67;;;27.29;40.52
37066;BME280;22981;43.080;25.550;2022-07-29T21:09:20;99455.03;;;27.28;40.62
37066;BME280;22981;43.080;25.550;2022-07-29T21:11:48;99453.20;;;27.26;40.71
37066;BME280;22981;43.080;25.550;2022-07-29T21:14:16;99446.19;;;27.22;40.76
37066;BME280;22981;43.080;25.550;2022-07-29T21:16:48;99446.84;;;27.19;40.73
37066;BME280;22981;43.080;25.550;2022-07-29T21:19:16;99453.33;;;27.14;40.83